Time;durP1;ratioP1;P1;durP2;ratioP2;P2;SDS_P1;SDS_P2;PMS_P1;PMS_P2;Temp;Humidity;BMP_temperature;BMP_pressure;BME280_temperature;BME280_humidity;BME280_pressure;Samples;Min_cycle;Max_cycle;Signal;HPM_P1;HPM_P2
2022/12/18 00:02:01;;;;;;;61.90;21.80;;;;;;;-5.07;92.42;101924.47;103192;1282;25698;-59
2022/12/18 00:04:33;;;;;;;57.90;16.70;;;;;;;-5.07;92.45;101921.48;102990;1297;22509;-58
2022/12/18 00:07:04;;;;;;;55.80;18.00;;;;;;;-5.10;92.41;101917.02;103033;1281;22611;-60
2022/12/18 00:09:36;;;;;;;62.20;17.00;;;;;;;-5.12;92.49;101917.95;103107;1288;25760;-59
2022/12/18 00:12:09;;;;;;;52.50;16.90;;;;;;;-5.15;92.37;101926.48;103320;1305;25987;-59
2022/12/18 00:14:45;;;;;;;49.60;15.40;;;;;;;-5.19;92.41;101928.48;103059;1308;25575;-58
2022/12/18 00:17:16;;;;;;;51.90;14.70;;;;;;;-5.22;92.50;101932.41;103094;1290;22659;-58
2022/12/18 00:19:47;;;;;;;50.40;16.10;;;;;;;-5.26;92.47;101936.57;103271;1303;22570;-60
2022/12/18 00:22:23;;;;;;;49.10;14.50;;;;;;;-5.28;92.48;101937.90;103204;1282;22593;-59
2022/12/18 00:24:55;;;;;;;56.30;16.90;;;;;;;-5.31;92.56;101938.26;103097;1283;22599;-59
2022/12/18 00:27:27;;;;;;;54.20;18.40;;;;;;;-5.33;92.75;101945.02;103196;1291;22742;-59
2022/12/18 00:29:58;;;;;;;47.20;15.60;;;;;;;-5.36;92.78;101947.46;103310;1283;22582;-59
2022/12/18 00:32:30;;;;;;;46.80;14.00;;;;;;;-5.39;92.71;101947.09;103207;1280;25563;-56
2022/12/18 00:35:01;;;;;;;78.80;29.40;;;;;;;-5.42;92.79;101946.91;102959;1310;25415;-59
2022/12/18 00:37:34;;;;;;;66.50;23.30;;;;;;;-5.44;92.78;101947.45;103130;1281;22630;-59
2022/12/18 00:40:07;;;;;;;59.20;17.70;;;;;;;-5.44;92.91;101949.95;103085;1303;25551;-59
2022/12/18 00:42:57;;;;;;;56.10;19.30;;;;;;;-5.43;92.95;101958.45;103124;1295;25577;-59
2022/12/18 00:45:30;;;;;;;55.80;17.50;;;;;;;-5.46;92.86;101966.52;103045;1280;22467;-59
2022/12/18 00:48:02;;;;;;;50.00;14.90;;;;;;;-5.48;92.94;101967.42;103072;1310;22679;-60
2022/12/18 00:50:34;;;;;;;55.20;17.50;;;;;;;-5.50;92.95;101969.84;103124;1292;23223;-59
2022/12/18 00:53:05;;;;;;;55.70;18.50;;;;;;;-5.51;93.08;101974.23;102272;1281;1524733;-59
2022/12/18 00:55:41;;;;;;;52.10;17.60;;;;;;;-5.51;93.18;101977.17;103022;1288;22572;-60
2022/12/18 00:58:14;;;;;;;53.60;17.60;;;;;;;-5.50;93.16;101981.27;103034;1281;22660;-59
2022/12/18 01:00:46;;;;;;;58.90;18.50;;;;;;;-5.49;93.17;101985.27;103185;1285;22648;-59
2022/12/18 01:03:17;;;;;;;60.00;18.40;;;;;;;-5.46;93.21;101990.29;103181;1288;24297;-58
2022/12/18 01:05:49;;;;;;;52.60;18.30;;;;;;;-5.43;93.21;101998.81;103105;1284;22559;-58
2022/12/18 01:08:20;;;;;;;44.60;14.70;;;;;;;-5.42;93.25;102005.92;103065;1281;23068;-57
2022/12/18 01:10:53;;;;;;;54.50;17.50;;;;;;;-5.42;93.19;102007.96;103338;1283;25437;-60
2022/12/18 01:13:24;;;;;;;60.60;18.50;;;;;;;-5.41;93.21;102012.95;103017;1281;26662;-60
2022/12/18 01:15:56;;;;;;;57.40;17.60;;;;;;;-5.42;93.21;102015.58;103113;1307;22689;-59
2022/12/18 01:18:28;;;;;;;54.20;15.70;;;;;;;-5.43;93.25;102012.80;103128;1288;22529;-59
2022/12/18 01:20:59;;;;;;;48.80;14.60;;;;;;;-5.46;93.34;102013.30;103380;1305;22535;-59
2022/12/18 01:23:31;;;;;;;56.00;15.70;;;;;;;-5.48;93.19;102014.39;103371;1283;22820;-60
2022/12/18 01:26:07;;;;;;;57.60;17.00;;;;;;;-5.49;93.32;102014.98;102985;1286;22602;-58
2022/12/18 01:28:38;;;;;;;51.60;14.20;;;;;;;-5.50;93.41;102016.80;103184;1282;26741;-61
2022/12/18 01:31:21;;;;;;;58.70;16.80;;;;;;;-5.50;93.43;102018.13;103434;1307;22545;-59
2022/12/18 01:33:53;;;;;;;58.00;17.70;;;;;;;-5.48;93.51;102025.06;103596;1286;25581;-61
2022/12/18 01:36:27;;;;;;;55.80;16.50;;;;;;;-5.45;93.59;102027.35;103509;1283;22664;-61
2022/12/18 01:39:03;;;;;;;58.70;16.90;;;;;;;-5.44;93.57;102033.08;103816;1307;23945;-58
2022/12/18 01:44:55;;;;;;;60.90;16.40;;;;;;;-5.45;93.59;102031.41;103440;1281;22506;-59
2022/12/18 01:47:29;;;;;;;53.60;14.90;;;;;;;-5.44;93.55;102030.97;103437;1302;22717;-59
2022/12/18 01:50:04;;;;;;;62.60;16.30;;;;;;;-5.43;93.60;102033.96;103604;1306;22581;-59
2022/12/18 01:52:36;;;;;;;53.60;16.80;;;;;;;-5.41;93.68;102037.23;103379;1304;22854;-61
2022/12/18 01:55:10;;;;;;;50.60;15.50;;;;;;;-5.41;93.59;102037.13;103449;1281;22579;-60
2022/12/18 01:57:46;;;;;;;55.10;15.00;;;;;;;-5.43;93.55;102035.11;103535;1281;25994;-62
2022/12/18 02:00:26;;;;;;;57.30;17.00;;;;;;;-5.42;93.60;102033.66;103588;1291;22491;-60
2022/12/18 02:02:58;;;;;;;50.30;15.80;;;;;;;-5.40;93.68;102039.30;103603;1295;22651;-59
2022/12/18 02:05:45;;;;;;;58.90;17.60;;;;;;;-5.37;93.62;102044.68;103708;1280;22577;-58
2022/12/18 02:08:23;;;;;;;58.90;15.70;;;;;;;-5.36;93.62;102047.61;103491;1283;22529;-60
2022/12/18 02:11:06;;;;;;;53.70;15.80;;;;;;;-5.34;93.62;102047.75;103443;1306;22521;-62
2022/12/18 02:13:43;;;;;;;56.00;16.40;;;;;;;-5.32;93.65;102049.85;103439;1306;22477;-59
2022/12/18 02:16:22;;;;;;;56.40;16.70;;;;;;;-5.30;93.73;102046.21;103382;1307;22712;-59
2022/12/18 02:19:00;;;;;;;55.10;16.30;;;;;;;-5.26;93.75;102041.81;103497;1306;22447;-60
2022/12/18 02:21:41;;;;;;;49.90;15.40;;;;;;;-5.19;93.75;102044.09;103582;1284;26044;-60
2022/12/18 02:24:30;;;;;;;64.40;17.90;;;;;;;-5.14;93.78;102047.27;103517;1282;22514;-59
2022/12/18 02:27:05;;;;;;;53.40;16.00;;;;;;;-5.10;93.67;102054.44;103467;1306;22582;-60
2022/12/18 02:29:43;;;;;;;51.70;17.50;;;;;;;-5.08;93.61;102056.58;103424;1306;22502;-59
2022/12/18 02:32:19;;;;;;;70.30;18.90;;;;;;;-5.03;93.62;102060.21;103532;1303;23954;-60
2022/12/18 02:34:54;;;;;;;63.40;18.40;;;;;;;-4.98;93.63;102057.38;103463;1278;25010;-59
2022/12/18 02:37:28;;;;;;;64.80;17.90;;;;;;;-4.94;93.58;102058.91;103486;1306;23024;-58
2022/12/18 02:40:03;;;;;;;57.50;17.70;;;;;;;-4.92;93.40;102064.36;103523;1282;24364;-60
2022/12/18 02:42:35;;;;;;;55.50;18.00;;;;;;;-4.92;93.34;102070.84;103432;1306;22517;-60
2022/12/18 02:45:08;;;;;;;58.80;19.30;;;;;;;-4.93;93.33;102068.46;103546;1303;22667;-61
2022/12/18 02:47:44;;;;;;;58.70;18.10;;;;;;;-4.91;93.35;102064.48;103636;1306;22575;-62
2022/12/18 02:50:23;;;;;;;61.80;18.20;;;;;;;-4.90;93.39;102067.96;103552;1281;22694;-59
2022/12/18 02:53:12;;;;;;;53.60;17.40;;;;;;;-4.84;93.48;102074.11;103643;1305;22624;-62
2022/12/18 02:55:59;;;;;;;57.80;18.50;;;;;;;-4.80;93.37;102068.73;103338;1282;24362;-59
2022/12/18 02:58:37;;;;;;;60.10;18.10;;;;;;;-4.76;93.35;102069.73;103506;1280;22684;-59
2022/12/18 03:01:16;;;;;;;55.90;17.80;;;;;;;-4.74;93.40;102072.38;103441;1282;22608;-60
2022/12/18 03:03:53;;;;;;;53.50;17.30;;;;;;;-4.73;93.25;102077.88;103505;1282;22574;-66
2022/12/18 03:06:28;;;;;;;59.00;19.40;;;;;;;-4.69;93.27;102081.05;103529;1288;22569;-62
2022/12/18 03:09:03;;;;;;;56.50;16.70;;;;;;;-4.68;93.18;102079.86;103535;1306;22493;-59
2022/12/18 03:14:33;;;;;;;55.60;15.50;;;;;;;-4.74;93.09;102076.99;103419;1282;22641;-58
2022/12/18 03:17:13;;;;;;;58.70;17.90;;;;;;;-4.72;93.11;102073.93;103514;1282;22561;-59
2022/12/18 03:19:49;;;;;;;50.20;16.90;;;;;;;-4.71;93.14;102080.36;103541;1306;22696;-60
2022/12/18 03:22:24;;;;;;;59.70;17.10;;;;;;;-4.71;93.10;102084.55;103556;1275;25683;-58
2022/12/18 03:24:57;;;;;;;55.90;15.60;;;;;;;-4.73;93.00;102090.03;103553;1282;22881;-63
2022/12/18 03:27:32;;;;;;;52.60;16.10;;;;;;;-4.74;92.99;102092.70;104066;1282;22526;-62
2022/12/18 03:30:10;;;;;;;48.20;14.80;;;;;;;-4.76;92.95;102099.31;104033;1289;22539;-60
2022/12/18 03:32:47;;;;;;;53.30;16.00;;;;;;;-4.76;92.96;102091.63;103570;1288;22668;-60
2022/12/18 03:35:26;;;;;;;57.10;17.90;;;;;;;-4.71;93.06;102094.00;103428;1289;22654;-60
2022/12/18 03:37:58;;;;;;;51.10;16.00;;;;;;;-4.67;93.16;102100.22;103527;1305;22647;-60
2022/12/18 03:40:36;;;;;;;50.60;17.10;;;;;;;-4.66;93.03;102095.42;103534;1290;22580;-60
2022/12/18 03:43:12;;;;;;;49.90;15.60;;;;;;;-4.66;93.01;102092.55;103480;1282;22536;-60
2022/12/18 03:45:49;;;;;;;58.60;17.80;;;;;;;-4.67;92.99;102093.59;103614;1306;25999;-60
2022/12/18 03:48:30;;;;;;;59.00;16.30;;;;;;;-4.64;93.07;102094.48;103561;1282;22682;-61
2022/12/18 03:51:08;;;;;;;48.80;15.00;;;;;;;-4.60;93.03;102097.54;103547;1307;22487;-61
2022/12/18 03:53:46;;;;;;;51.20;14.50;;;;;;;-4.62;92.83;102097.31;103458;1306;22476;-60
2022/12/18 03:56:20;;;;;;;47.20;14.30;;;;;;;-4.63;92.62;102102.92;103376;1281;23061;-60
2022/12/18 03:58:54;;;;;;;56.80;14.20;;;;;;;-4.62;92.78;102102.27;103518;1304;24282;-61
2022/12/18 04:01:31;;;;;;;56.70;16.80;;;;;;;-4.58;92.87;102101.98;103534;1306;24259;-61
2022/12/18 04:04:04;;;;;;;48.50;15.10;;;;;;;-4.56;92.74;102107.73;103498;1304;24288;-59
2022/12/18 04:06:41;;;;;;;49.30;15.50;;;;;;;-4.58;92.64;102107.33;103553;1281;25355;-61
2022/12/18 04:09:13;;;;;;;54.70;16.20;;;;;;;-4.60;92.61;102111.86;103514;1287;22588;-60
2022/12/18 04:11:44;;;;;;;50.50;14.70;;;;;;;-4.60;92.78;102115.99;103567;1306;22517;-60
2022/12/18 04:14:16;;;;;;;52.50;16.50;;;;;;;-4.56;92.88;102119.34;103451;1297;23961;-60
2022/12/18 04:16:47;;;;;;;48.10;15.40;;;;;;;-4.52;92.79;102120.02;103565;1306;22803;-62
2022/12/18 04:19:18;;;;;;;46.00;14.60;;;;;;;-4.50;92.81;102122.98;103407;1306;25435;-60
2022/12/18 04:21:50;;;;;;;49.20;16.80;;;;;;;-4.47;92.68;102126.74;103504;1282;25995;-61
2022/12/18 04:24:22;;;;;;;51.50;14.40;;;;;;;-4.47;92.65;102131.42;103553;1306;25645;-58
2022/12/18 04:26:53;;;;;;;47.10;13.90;;;;;;;-4.48;92.48;102135.44;103548;1304;22513;-58
2022/12/18 04:29:26;;;;;;;53.80;15.90;;;;;;;-4.48;92.61;102138.16;103689;1290;25409;-60
2022/12/18 04:31:58;;;;;;;50.30;16.10;;;;;;;-4.46;92.58;102139.23;103472;1306;22815;-59
2022/12/18 04:34:29;;;;;;;48.70;13.80;;;;;;;-4.47;92.47;102140.46;103410;1304;22540;-60
2022/12/18 04:37:02;;;;;;;54.20;17.00;;;;;;;-4.51;92.35;102133.63;103447;1305;22809;-59
2022/12/18 04:39:39;;;;;;;44.20;13.20;;;;;;;-4.55;92.31;102141.42;103396;1304;22832;-60
2022/12/18 04:42:14;;;;;;;58.70;15.90;;;;;;;-4.54;92.54;102152.89;103443;1305;22454;-58
2022/12/18 04:44:46;;;;;;;52.50;16.20;;;;;;;-4.53;92.39;102158.40;103502;1305;22639;-59
2022/12/18 04:47:17;;;;;;;53.50;14.80;;;;;;;-4.53;92.39;102165.23;103431;1290;25077;-61
2022/12/18 04:49:49;;;;;;;49.30;15.70;;;;;;;-4.53;92.47;102169.37;103441;1305;24361;-61
2022/12/18 04:52:20;;;;;;;45.50;14.60;;;;;;;-4.51;92.47;102171.21;103525;1291;26064;-58
2022/12/18 04:54:51;;;;;;;50.30;15.30;;;;;;;-4.52;92.33;102173.62;103536;1280;26587;-60
2022/12/18 04:57:23;;;;;;;46.10;13.80;;;;;;;-4.54;92.25;102173.20;103440;1306;26265;-61
2022/12/18 04:59:54;;;;;;;55.20;17.80;;;;;;;-4.56;92.19;102175.06;103492;1306;22527;-58
2022/12/18 05:02:25;;;;;;;55.00;16.90;;;;;;;-4.56;92.31;102178.98;103499;1282;22565;-61
2022/12/18 05:04:58;;;;;;;45.60;14.90;;;;;;;-4.53;92.42;102179.41;103656;1282;24314;-61
2022/12/18 05:07:29;;;;;;;55.90;17.70;;;;;;;-4.49;92.51;102176.91;103588;1282;22652;-59
2022/12/18 05:10:00;;;;;;;49.00;15.90;;;;;;;-4.50;92.25;102178.20;103601;1281;22675;-61
2022/12/18 05:12:32;;;;;;;53.20;16.20;;;;;;;-4.49;92.31;102176.75;103608;1305;22627;-59
2022/12/18 05:15:11;;;;;;;60.10;17.90;;;;;;;-4.49;92.13;102184.10;103568;1283;25944;-59
2022/12/18 05:17:43;;;;;;;53.10;16.70;;;;;;;-4.50;92.07;102181.71;103495;1306;23092;-59
2022/12/18 05:20:14;;;;;;;46.70;16.10;;;;;;;-4.48;92.27;102177.50;103475;1279;24218;-59
2022/12/18 05:22:46;;;;;;;58.90;20.60;;;;;;;-4.48;92.10;102180.46;103533;1282;22893;-60
2022/12/18 05:25:17;;;;;;;62.40;20.80;;;;;;;-4.48;92.09;102181.30;103501;1296;22506;-59
2022/12/18 05:27:49;;;;;;;64.40;18.30;;;;;;;-4.52;91.87;102184.52;103533;1282;23034;-59
2022/12/18 05:30:22;;;;;;;73.50;22.30;;;;;;;-4.54;91.88;102191.30;103535;1304;24301;-59
2022/12/18 05:32:54;;;;;;;51.60;17.30;;;;;;;-4.55;91.94;102188.45;103507;1306;24036;-60
2022/12/18 05:35:25;;;;;;;56.20;16.50;;;;;;;-4.53;92.02;102191.78;104528;1298;22590;-60
2022/12/18 05:37:56;;;;;;;68.20;24.50;;;;;;;-4.51;92.02;102192.27;103614;1300;24703;-61
2022/12/18 05:40:29;;;;;;;62.00;22.50;;;;;;;-4.50;92.02;102190.73;103509;1275;24208;-61
2022/12/18 05:43:07;;;;;;;63.90;20.50;;;;;;;-4.50;91.89;102193.79;103475;1304;22615;-60
2022/12/18 05:45:41;;;;;;;63.50;21.40;;;;;;;-4.51;91.68;102192.34;103330;1282;23087;-59
2022/12/18 05:48:16;;;;;;;58.10;18.30;;;;;;;-4.51;91.90;102196.30;103480;1282;23203;-59
2022/12/18 05:50:49;;;;;;;58.30;20.70;;;;;;;-4.52;91.73;102197.36;103753;1306;22572;-58
2022/12/18 05:53:21;;;;;;;59.80;18.20;;;;;;;-4.52;91.68;102201.33;103596;1282;25521;-61
2022/12/18 05:55:53;;;;;;;50.40;15.20;;;;;;;-4.53;91.62;102202.98;103401;1274;24341;-60
2022/12/18 05:58:24;;;;;;;56.90;17.60;;;;;;;-4.56;91.53;102210.91;103492;1282;22520;-60
2022/12/18 06:00:55;;;;;;;63.40;17.80;;;;;;;-4.57;91.40;102221.75;103377;1305;22521;-60
2022/12/18 06:03:28;;;;;;;53.70;18.40;;;;;;;-4.58;91.50;102226.01;103590;1281;22714;-61
2022/12/18 06:05:59;;;;;;;50.90;18.20;;;;;;;-4.57;91.52;102231.05;103467;1282;22601;-60
2022/12/18 06:08:33;;;;;;;49.00;18.80;;;;;;;-4.53;91.64;102237.25;103450;1282;23193;-60
2022/12/18 06:11:05;;;;;;;54.20;18.40;;;;;;;-4.53;91.55;102238.51;103598;1282;22623;-58
2022/12/18 06:13:37;;;;;;;52.60;20.80;;;;;;;-4.55;91.32;102240.29;103516;1298;23166;-60
2022/12/18 06:16:09;;;;;;;52.70;18.10;;;;;;;-4.56;91.41;102238.01;103450;1304;24225;-59
2022/12/18 06:18:44;;;;;;;58.20;18.60;;;;;;;-4.60;91.19;102240.81;103410;1305;23911;-58
2022/12/18 06:21:16;;;;;;;55.20;18.00;;;;;;;-4.62;91.10;102239.10;103473;1281;22501;-58
2022/12/18 06:23:48;;;;;;;51.20;19.80;;;;;;;-4.65;91.00;102250.49;103485;1306;24327;-60
2022/12/18 06:26:22;;;;;;;52.40;16.90;;;;;;;-4.67;91.13;102249.55;103430;1282;22560;-60
2022/12/18 06:28:54;;;;;;;59.90;19.90;;;;;;;-4.65;91.40;102251.20;103542;1305;23054;-59
2022/12/18 06:31:25;;;;;;;63.10;21.30;;;;;;;-4.62;91.36;102253.79;103703;1283;24348;-60
2022/12/18 06:33:58;;;;;;;59.50;19.00;;;;;;;-4.63;91.19;102258.59;103384;1282;25572;-61
2022/12/18 06:36:32;;;;;;;63.90;21.30;;;;;;;-4.63;91.22;102264.75;103657;1282;22525;-60
2022/12/18 06:39:04;;;;;;;60.60;19.80;;;;;;;-4.62;91.13;102270.86;103449;1306;25481;-59
2022/12/18 06:41:35;;;;;;;69.40;22.00;;;;;;;-4.61;91.22;102273.74;103543;1282;22502;-59
2022/12/18 06:44:07;;;;;;;69.40;24.00;;;;;;;-4.60;91.33;102272.17;103639;1282;22667;-61
2022/12/18 06:46:39;;;;;;;67.20;23.70;;;;;;;-4.60;91.27;102280.52;103551;1292;25575;-59
2022/12/18 06:49:11;;;;;;;68.80;22.10;;;;;;;-4.58;91.39;102280.20;103502;1282;24730;-58
2022/12/18 06:51:42;;;;;;;66.50;23.50;;;;;;;-4.58;90.99;102283.55;103500;1282;22877;-61
2022/12/18 06:54:14;;;;;;;67.80;22.10;;;;;;;-4.58;90.94;102287.47;103520;1306;22526;-60
2022/12/18 06:56:47;;;;;;;67.90;24.30;;;;;;;-4.57;91.01;102288.71;103663;1306;22668;-60
2022/12/18 06:59:19;;;;;;;61.00;22.50;;;;;;;-4.57;91.11;102288.90;103406;1306;25324;-62
2022/12/18 07:01:50;;;;;;;68.30;24.80;;;;;;;-4.56;91.14;102291.11;103502;1306;22579;-60
2022/12/18 07:04:23;;;;;;;73.60;28.10;;;;;;;-4.53;91.10;102296.83;103446;1291;23066;-60
2022/12/18 07:06:55;;;;;;;76.30;28.50;;;;;;;-4.51;91.25;102294.74;103419;1306;23098;-62
2022/12/18 07:09:28;;;;;;;77.70;29.60;;;;;;;-4.49;91.26;102299.26;103407;1282;22621;-60
2022/12/18 07:12:00;;;;;;;81.90;31.70;;;;;;;-4.47;91.35;102300.12;103595;1306;23665;-59
2022/12/18 07:14:31;;;;;;;79.80;29.50;;;;;;;-4.47;91.21;102306.20;103484;1268;22831;-59
2022/12/18 07:17:03;;;;;;;67.50;23.00;;;;;;;-4.48;90.90;102306.23;103353;1275;24290;-61
2022/12/18 07:19:35;;;;;;;68.70;23.00;;;;;;;-4.51;90.59;102309.23;103462;1282;23243;-60
2022/12/18 07:22:07;;;;;;;120.30;44.00;;;;;;;-4.54;90.73;102311.53;103525;1282;26873;-61
2022/12/18 07:24:39;;;;;;;116.90;41.90;;;;;;;-4.53;90.81;102310.69;103587;1292;22688;-61
2022/12/18 07:27:10;;;;;;;82.30;28.70;;;;;;;-4.53;90.77;102315.14;103339;1306;22641;-61
2022/12/18 07:29:42;;;;;;;71.40;25.30;;;;;;;-4.53;90.74;102320.50;103550;1305;22693;-59
2022/12/18 07:32:13;;;;;;;74.40;25.50;;;;;;;-4.57;90.61;102320.75;103606;1298;22951;-59
2022/12/18 07:34:44;;;;;;;80.20;30.10;;;;;;;-4.56;90.96;102319.88;103337;1306;24118;-61
2022/12/18 07:37:16;;;;;;;77.60;28.30;;;;;;;-4.53;91.04;102325.50;103463;1281;22600;-60
2022/12/18 07:40:00;;;;;;;78.30;27.40;;;;;;;-4.52;90.85;102323.98;103513;1275;23767;-62
2022/12/18 07:42:32;;;;;;;79.20;29.90;;;;;;;-4.52;90.81;102330.52;103836;1282;25835;-61
2022/12/18 07:45:04;;;;;;;71.60;29.30;;;;;;;-4.51;90.80;102333.84;103658;1284;25624;-61
2022/12/18 07:47:36;;;;;;;65.90;25.10;;;;;;;-4.51;90.63;102340.38;103503;1281;26516;-59
2022/12/18 07:50:10;;;;;;;62.90;24.20;;;;;;;-4.51;90.72;102347.33;103526;1284;25486;-59
2022/12/18 07:52:43;;;;;;;73.20;24.40;;;;;;;-4.49;90.80;102345.98;103398;1282;25279;-62
2022/12/18 07:55:15;;;;;;;77.80;25.50;;;;;;;-4.47;90.85;102342.09;103466;1282;22543;-60
2022/12/18 07:57:47;;;;;;;75.20;25.90;;;;;;;-4.42;91.15;102342.65;103564;1282;22535;-62
2022/12/18 08:00:20;;;;;;;74.50;25.80;;;;;;;-4.37;90.97;102339.94;103545;1274;22476;-61
2022/12/18 08:02:51;;;;;;;76.30;28.30;;;;;;;-4.35;90.85;102337.55;103452;1302;25459;-60
2022/12/18 08:05:24;;;;;;;74.70;27.00;;;;;;;-4.34;90.61;102346.69;103310;1275;25884;-59
2022/12/18 08:07:56;;;;;;;75.40;28.70;;;;;;;-4.34;90.76;102349.90;103557;1282;22557;-62
2022/12/18 08:10:27;;;;;;;72.70;26.40;;;;;;;-4.33;90.61;102351.72;103527;1282;22645;-61
2022/12/18 08:12:59;;;;;;;74.40;26.70;;;;;;;-4.33;90.64;102355.19;103334;1282;23088;-60
2022/12/18 08:15:30;;;;;;;71.60;24.60;;;;;;;-4.32;90.66;102358.45;103388;1289;22511;-61
2022/12/18 08:18:02;;;;;;;76.00;26.60;;;;;;;-4.32;90.60;102362.30;103515;1291;22600;-59
2022/12/18 08:20:34;;;;;;;73.30;27.30;;;;;;;-4.31;90.55;102368.73;103571;1282;25396;-62
2022/12/18 08:23:06;;;;;;;79.40;28.10;;;;;;;-4.32;90.35;102376.00;103389;1298;22888;-62
2022/12/18 08:25:38;;;;;;;62.30;23.70;;;;;;;-4.32;90.40;102379.88;103428;1282;22606;-61
2022/12/18 08:28:09;;;;;;;54.30;22.00;;;;;;;-4.33;90.28;102378.44;103469;1276;22678;-61
2022/12/18 08:30:42;;;;;;;65.80;23.30;;;;;;;-4.34;90.30;102378.48;103431;1275;24291;-60
2022/12/18 08:33:14;;;;;;;69.70;22.60;;;;;;;-4.34;90.22;102382.00;103511;1281;22739;-62
2022/12/18 08:35:47;;;;;;;58.90;21.80;;;;;;;-4.35;90.29;102384.08;103535;1306;25562;-62
2022/12/18 08:38:18;;;;;;;62.60;25.40;;;;;;;-4.36;90.17;102386.19;103228;1291;23898;-62
2022/12/18 08:40:50;;;;;;;67.20;24.60;;;;;;;-4.35;90.19;102388.96;103476;1306;24794;-61
2022/12/18 08:46:11;;;;;;;70.60;26.60;;;;;;;-4.29;90.25;102401.65;103279;1282;22623;-62
2022/12/18 08:48:45;;;;;;;58.80;21.90;;;;;;;-4.29;90.16;102402.39;103296;1306;22670;-62
2022/12/18 08:51:18;;;;;;;53.80;21.00;;;;;;;-4.28;90.21;102405.08;103509;1281;24416;-61
2022/12/18 08:53:51;;;;;;;54.50;19.40;;;;;;;-4.27;90.08;102410.30;103391;1292;25448;-60
2022/12/18 08:56:23;;;;;;;62.10;20.90;;;;;;;-4.27;90.11;102422.11;103753;1279;26890;-61
2022/12/18 08:58:56;;;;;;;66.00;23.10;;;;;;;-4.22;90.39;102417.02;103245;1282;22535;-61
2022/12/18 09:01:28;;;;;;;56.20;22.00;;;;;;;-4.16;90.42;102414.48;103485;1275;22705;-60
2022/12/18 09:03:59;;;;;;;60.30;21.60;;;;;;;-4.14;90.03;102404.73;103225;1282;22508;-59
2022/12/18 09:06:33;;;;;;;54.20;20.40;;;;;;;-4.12;89.98;102403.70;103323;1276;22535;-61
2022/12/18 09:09:05;;;;;;;64.00;23.40;;;;;;;-4.12;90.06;102402.63;103376;1275;25839;-62
2022/12/18 09:11:37;;;;;;;62.60;23.80;;;;;;;-4.07;90.11;102402.80;103270;1274;22487;-63
2022/12/18 09:14:10;;;;;;;70.10;25.50;;;;;;;-4.03;90.10;102404.95;103461;1287;26966;-56
2022/12/18 09:16:42;;;;;;;70.70;23.50;;;;;;;-3.98;90.03;102403.15;103364;1281;24273;-59
2022/12/18 09:19:14;;;;;;;58.20;21.20;;;;;;;-3.94;90.10;102398.20;103630;1282;24434;-61
2022/12/18 09:21:48;;;;;;;74.80;26.90;;;;;;;-3.93;89.62;102392.61;103395;1282;24264;-60
2022/12/18 09:24:23;;;;;;;63.40;23.20;;;;;;;-3.94;89.50;102385.03;103329;1282;22506;-61
2022/12/18 09:26:57;;;;;;;57.20;21.50;;;;;;;-3.90;89.54;102381.73;103406;1305;22742;-58
2022/12/18 09:29:29;;;;;;;65.20;25.10;;;;;;;-3.86;89.94;102377.63;103678;1275;24554;-69
2022/12/18 09:32:03;;;;;;;56.90;21.40;;;;;;;-3.81;89.75;102374.08;103233;1274;22526;-61
2022/12/18 09:34:35;;;;;;;61.70;22.80;;;;;;;-3.80;89.47;102366.23;103446;1306;24443;-59
2022/12/18 09:37:07;;;;;;;49.00;20.90;;;;;;;-3.79;89.50;102360.75;103316;1282;22449;-58
2022/12/18 09:39:41;;;;;;;57.20;22.30;;;;;;;-3.77;89.39;102354.34;103404;1282;22524;-61
2022/12/18 09:42:22;;;;;;;53.30;19.30;;;;;;;-3.75;89.41;102348.73;103251;1299;22515;-60
2022/12/18 09:44:55;;;;;;;59.90;24.50;;;;;;;-3.75;89.35;102346.62;103347;1305;26086;-58
2022/12/18 09:47:31;;;;;;;64.40;22.80;;;;;;;-3.73;89.34;102344.14;103456;1281;24627;-60
2022/12/18 09:50:18;;;;;;;62.50;24.40;;;;;;;-3.73;89.15;102343.61;103349;1274;27050;-61
2022/12/18 09:52:55;;;;;;;58.00;23.40;;;;;;;-3.68;89.36;102342.77;103186;1304;25861;-62
2022/12/18 09:55:31;;;;;;;66.30;24.80;;;;;;;-3.67;89.07;102344.86;103272;1306;25726;-59
2022/12/18 09:58:07;;;;;;;68.10;29.10;;;;;;;-3.69;89.11;102348.43;103237;1287;25517;-61
2022/12/18 10:00:42;;;;;;;59.50;22.10;;;;;;;-3.68;89.15;102347.46;103303;1282;24308;-59
2022/12/18 10:03:16;;;;;;;59.90;21.10;;;;;;;-3.68;88.85;102348.95;103263;1298;24818;-60
2022/12/18 10:05:57;;;;;;;53.50;21.80;;;;;;;-3.67;89.10;102345.63;103252;1306;22576;-58
2022/12/18 10:08:38;;;;;;;67.00;22.10;;;;;;;-3.64;88.99;102348.48;103333;1281;22732;-62
2022/12/18 10:11:27;;;;;;;64.20;23.20;;;;;;;-3.65;88.80;102346.11;103197;1281;22513;-59
2022/12/18 10:14:09;;;;;;;59.50;23.10;;;;;;;-3.64;88.88;102346.23;103468;1282;22535;-59
2022/12/18 10:16:51;;;;;;;53.60;20.40;;;;;;;-3.62;88.91;102351.21;103303;1282;22564;-61
2022/12/18 10:19:34;;;;;;;64.10;21.30;;;;;;;-3.58;89.13;102359.31;103658;1305;22514;-59
2022/12/18 10:22:16;;;;;;;59.40;22.10;;;;;;;-3.54;88.94;102363.98;103313;1292;23862;-63
2022/12/18 10:24:55;;;;;;;56.10;20.30;;;;;;;-3.51;88.94;102363.02;103317;1282;24353;-60
2022/12/18 10:27:27;;;;;;;56.30;20.00;;;;;;;-3.53;88.40;102367.23;106727;1274;22384;-61
2022/12/18 10:30:02;;;;;;;52.60;19.40;;;;;;;-3.56;88.21;102370.83;103660;1304;24979;-61
2022/12/18 10:32:33;;;;;;;63.70;23.70;;;;;;;-3.61;88.26;102366.46;103364;1303;22507;-60
2022/12/18 10:35:09;;;;;;;62.30;29.20;;;;;;;-3.61;88.49;102363.09;103340;1282;22633;-61
2022/12/18 10:38:02;;;;;;;60.40;22.60;;;;;;;-3.56;88.93;102360.79;103373;1282;22702;-61
2022/12/18 10:40:48;;;;;;;60.60;22.20;;;;;;;-3.52;88.73;102355.89;103257;1297;24271;-61
2022/12/18 10:43:23;;;;;;;54.30;19.60;;;;;;;-3.52;88.35;102355.18;103286;1274;25688;-62
2022/12/18 10:46:20;;;;;;;55.60;20.00;;;;;;;-3.56;87.96;102356.79;103357;1274;22689;-62
2022/12/18 10:48:56;;;;;;;50.20;18.60;;;;;;;-3.57;88.39;102358.50;103432;1282;23081;-62
2022/12/18 10:51:33;;;;;;;58.60;21.40;;;;;;;-3.56;88.25;102361.89;103328;1275;22733;-61
2022/12/18 10:54:14;;;;;;;58.70;20.90;;;;;;;-3.57;88.42;102361.23;103316;1291;22573;-60
2022/12/18 10:56:44;;;;;;;;;;;;;;;-3.55;88.38;102361.70;103295;1297;22452;-60
2022/12/18 10:59:18;;;;;;;51.20;19.00;;;;;;;-3.55;88.22;102357.40;103394;1305;22426;-61
2022/12/18 11:01:54;;;;;;;58.50;22.00;;;;;;;-3.56;88.34;102362.58;103402;1274;28066;-60
2022/12/18 11:04:27;;;;;;;58.70;22.40;;;;;;;-3.55;88.23;102363.95;103413;1289;22656;-61
2022/12/18 11:07:04;;;;;;;67.10;23.90;;;;;;;-3.53;88.39;102363.39;103394;1282;22577;-60
2022/12/18 11:09:37;;;;;;;67.20;25.20;;;;;;;-3.49;88.42;102367.83;103262;1284;22499;-62
2022/12/18 11:12:20;;;;;;;65.10;24.00;;;;;;;-3.46;88.57;102368.50;103399;1282;22515;-63
2022/12/18 11:14:57;;;;;;;66.80;25.10;;;;;;;-3.44;88.32;102371.16;103448;1289;22669;-62
2022/12/18 11:17:33;;;;;;;71.70;26.40;;;;;;;-3.45;88.20;102371.65;103431;1282;22905;-60
2022/12/18 11:20:07;;;;;;;66.50;25.10;;;;;;;-3.44;88.41;102374.20;103425;1305;22997;-62
2022/12/18 11:22:40;;;;;;;67.20;24.90;;;;;;;-3.39;88.56;102376.31;103470;1282;24303;-62
2022/12/18 11:25:22;;;;;;;66.00;25.90;;;;;;;-3.36;88.48;102380.19;103824;1275;22715;-60
2022/12/18 11:27:56;;;;;;;75.00;27.30;;;;;;;-3.35;88.23;102381.11;103492;1306;25963;-60
2022/12/18 11:30:30;;;;;;;82.70;30.00;;;;;;;-3.31;88.49;102382.11;103381;1297;24235;-60
2022/12/18 11:33:07;;;;;;;81.10;31.50;;;;;;;-3.26;88.41;102386.58;103441;1274;22533;-62
2022/12/18 11:35:50;;;;;;;90.50;30.80;;;;;;;-3.23;88.50;102384.52;103382;1295;22590;-62
2022/12/18 11:38:25;;;;;;;75.80;30.30;;;;;;;-3.19;88.18;102393.07;103301;1278;24620;-61
2022/12/18 11:41:01;;;;;;;73.90;29.60;;;;;;;-3.18;88.22;102388.91;103320;1282;22764;-62
2022/12/18 11:43:39;;;;;;;81.40;29.60;;;;;;;-3.17;88.02;102384.81;103233;1282;22513;-62